Terminal Aerodrome Forecast
Issued by NWS

Current Version | Previous Version | Text Only | Print | Product List | Glossary On
Versions: 1 2 3 4 5 6 7 8 9 10 11 12 13 14 15 16 17 18 19 20 21 22 23 24 25 26 27 28 29
000
FTUS41 KPHI 031123
TAFMIV
TAF
KMIV 031123Z 0312/0412 VRB03KT P6SM BKN100
     FM031900 13004KT P6SM -SHSN OVC045
     FM032100 14004KT 4SM -PL OVC025
     FM032200 13004KT 2SM -RAPL OVC010
     FM040000 15004KT 1SM RA BR OVC008 WS020/21040KT
     FM040200 21006KT 2SM RA BR OVC005 WS015/23055KT
     FM040800 24006KT 2SM -RADZ BR OVC005 WS020/25045KT=

USA.gov is the U.S. government's official web portal to all federal, state and local government web resources and services.